createdAt,value
2019-05-09T00:00:44.010Z,38.18
2019-05-09T00:03:15.721Z,38.30
2019-05-09T00:05:46.464Z,38.53
2019-05-09T00:08:18.259Z,38.55
2019-05-09T00:10:49.902Z,38.96
2019-05-09T00:13:23.746Z,38.57
2019-05-09T00:15:55.347Z,38.66
2019-05-09T00:18:26.847Z,38.57
2019-05-09T00:21:04.893Z,38.57
2019-05-09T00:23:36.766Z,38.50
2019-05-09T00:26:07.458Z,38.68
2019-05-09T00:28:43.986Z,38.62
2019-05-09T00:31:29.782Z,38.44
2019-05-09T00:34:04.151Z,38.31
2019-05-09T00:36:35.990Z,38.57
2019-05-09T00:39:08.740Z,38.29
2019-05-09T00:41:40.395Z,38.98
2019-05-09T00:44:19.312Z,38.46
2019-05-09T00:47:06.634Z,38.63
2019-05-09T00:49:38.345Z,38.55
2019-05-09T00:52:10.269Z,38.55
2019-05-09T00:54:43.769Z,38.53
2019-05-09T00:57:34.365Z,38.66
2019-05-09T01:00:14.572Z,39.03
2019-05-09T01:02:45.803Z,38.56
2019-05-09T01:05:17.365Z,38.37
2019-05-09T01:07:49.062Z,38.40
2019-05-09T01:10:20.737Z,38.60
2019-05-09T01:12:54.052Z,38.53
2019-05-09T01:15:25.306Z,38.80
2019-05-09T01:17:56.841Z,38.80
2019-05-09T01:20:28.754Z,38.55
2019-05-09T01:22:59.453Z,38.60
2019-05-09T01:25:33.335Z,38.87
2019-05-09T01:28:04.762Z,38.61
2019-05-09T01:30:35.555Z,38.74
2019-05-09T01:33:35.263Z,38.71
2019-05-09T01:36:07.340Z,38.71
2019-05-09T01:38:39.299Z,38.67
2019-05-09T01:41:24.682Z,38.89
2019-05-09T01:43:44.443Z,38.82
2019-05-09T01:46:16.025Z,38.82
2019-05-09T01:48:47.794Z,38.96
2019-05-09T01:51:18.462Z,39.20
2019-05-09T01:53:53.653Z,38.70
2019-05-09T01:56:24.735Z,38.68
2019-05-09T01:58:55.489Z,38.70
2019-05-09T02:01:27.390Z,38.60
2019-05-09T02:03:59.310Z,38.83
2019-05-09T02:06:32.772Z,38.92
2019-05-09T02:09:06.798Z,38.67
2019-05-09T02:11:42.551Z,38.81
2019-05-09T02:14:14.701Z,38.61
2019-05-09T02:16:53.802Z,38.82
2019-05-09T02:19:33.265Z,39.11
2019-05-09T02:22:08.458Z,39.19
2019-05-09T02:24:40.072Z,38.89
2019-05-09T02:27:13.247Z,39.03
2019-05-09T02:29:45.357Z,38.99
2019-05-09T02:32:17.073Z,39.20
2019-05-09T02:34:48.739Z,39.03
2019-05-09T02:37:19.461Z,39.21
2019-05-09T02:39:51.309Z,38.69
2019-05-09T02:42:23.069Z,38.71
2019-05-09T02:44:54.741Z,38.93
2019-05-09T02:47:28.913Z,38.80
2019-05-09T02:49:59.795Z,38.80
2019-05-09T02:52:31.630Z,38.75
2019-05-09T02:55:03.349Z,38.62
2019-05-09T02:57:37.446Z,38.62
2019-05-09T03:00:29.013Z,38.37
2019-05-09T03:03:08.945Z,38.58
2019-05-09T03:05:39.067Z,38.75
2019-05-09T03:08:11.297Z,38.55
2019-05-09T03:10:43.268Z,38.54
2019-05-09T03:13:14.801Z,38.68
2019-05-09T03:15:49.444Z,38.82
2019-05-09T03:18:21.388Z,38.63
2019-05-09T03:21:03.046Z,38.65
2019-05-09T03:23:34.784Z,38.93
2019-05-09T03:26:08.437Z,38.87
2019-05-09T03:28:49.248Z,38.58
2019-05-09T03:31:21.917Z,38.80
2019-05-09T03:33:53.724Z,38.70
2019-05-09T03:36:24.480Z,38.66
2019-05-09T03:38:57.836Z,38.80
2019-05-09T03:41:29.778Z,38.57
2019-05-09T03:44:00.622Z,38.68
2019-05-09T03:46:48.529Z,38.92
2019-05-09T03:49:20.302Z,38.92
2019-05-09T03:51:51.813Z,38.69
2019-05-09T03:54:23.379Z,38.62
2019-05-09T03:57:03.052Z,38.84
2019-05-09T03:59:35.050Z,38.96
2019-05-09T04:02:09.828Z,38.80
2019-05-09T04:04:40.258Z,38.73
2019-05-09T04:07:12.255Z,38.66
2019-05-09T04:09:43.978Z,38.97
2019-05-09T04:12:17.958Z,38.69
2019-05-09T04:14:49.415Z,38.66
2019-05-09T04:17:20.830Z,38.66
2019-05-09T04:19:52.753Z,38.64
2019-05-09T04:22:23.505Z,38.69
2019-05-09T04:24:57.644Z,38.63
2019-05-09T04:29:29.769Z,38.46
2019-05-09T04:32:00.855Z,38.47
2019-05-09T04:34:32.814Z,38.77
2019-05-09T04:37:04.711Z,38.74
2019-05-09T04:39:35.759Z,38.60
2019-05-09T04:42:08.401Z,38.61
2019-05-09T04:44:49.637Z,38.67
2019-05-09T04:47:19.364Z,38.67
2019-05-09T04:49:51.306Z,38.71
2019-05-09T04:52:22.882Z,38.52
2019-05-09T04:54:57.468Z,38.34
2019-05-09T04:57:29.332Z,38.35
2019-05-09T05:00:01.054Z,38.46
2019-05-09T05:02:44.058Z,38.34
2019-05-09T05:05:17.952Z,38.28
2019-05-09T05:07:49.305Z,38.30
2019-05-09T05:10:20.827Z,38.29
2019-05-09T05:12:52.599Z,38.34
2019-05-09T05:15:24.335Z,38.21
2019-05-09T05:17:58.237Z,38.21
2019-05-09T05:20:31.402Z,38.23
2019-05-09T05:23:19.057Z,38.36
2019-05-09T05:25:50.774Z,38.31
2019-05-09T05:28:21.487Z,38.46
2019-05-09T05:30:53.302Z,38.20
2019-05-09T05:33:40.543Z,38.38
2019-05-09T05:36:12.306Z,38.33
2019-05-09T05:38:44.393Z,38.43
2019-05-09T05:41:18.145Z,38.36
2019-05-09T05:43:49.410Z,38.76
2019-05-09T05:46:51.531Z,38.46
2019-05-09T05:49:23.358Z,38.33
2019-05-09T05:51:57.494Z,38.41
2019-05-09T05:54:28.749Z,38.12
2019-05-09T05:56:59.640Z,37.98
2019-05-09T05:59:31.388Z,37.85
2019-05-09T06:02:03.316Z,37.80
2019-05-09T06:04:35.260Z,37.81
2019-05-09T06:07:08.064Z,37.75
2019-05-09T06:09:39.879Z,37.72
2019-05-09T06:12:11.742Z,37.69
2019-05-09T06:14:42.464Z,37.61
2019-05-09T06:17:14.303Z,37.62
2019-05-09T06:19:48.224Z,37.68
2019-05-09T06:22:20.585Z,37.72
2019-05-09T06:24:52.422Z,37.75
2019-05-09T06:27:24.289Z,37.75
2019-05-09T06:29:58.082Z,38.04
2019-05-09T06:32:29.392Z,38.19
2019-05-09T06:35:01.063Z,38.12
2019-05-09T06:37:32.774Z,37.96
2019-05-09T06:40:03.514Z,38.14
2019-05-09T06:42:37.839Z,38.08
2019-05-09T06:45:31.775Z,38.00
2019-05-09T06:48:03.649Z,37.87
2019-05-09T06:50:37.298Z,37.87
2019-05-09T06:53:08.741Z,37.87
2019-05-09T06:55:39.490Z,37.84
2019-05-09T06:58:29.310Z,37.68
2019-05-09T07:01:18.266Z,37.63
2019-05-09T07:03:52.446Z,37.65
2019-05-09T07:06:29.651Z,37.58
2019-05-09T07:09:14.261Z,37.43
2019-05-09T07:11:45.474Z,37.35
2019-05-09T07:14:33.042Z,37.23
2019-05-09T07:17:03.320Z,37.25
2019-05-09T07:19:35.065Z,37.25
2019-05-09T07:22:23.430Z,37.12
2019-05-09T07:25:18.652Z,37.13
2019-05-09T07:27:50.354Z,37.15
2019-05-09T07:30:40.906Z,37.06
2019-05-09T07:33:38.398Z,37.04
2019-05-09T07:36:10.301Z,37.05
2019-05-09T07:38:41.821Z,36.93
2019-05-09T07:41:13.649Z,36.90
2019-05-09T07:43:47.628Z,37.07
2019-05-09T07:46:28.430Z,37.07
2019-05-09T07:49:03.758Z,37.08
2019-05-09T07:51:34.482Z,37.02
2019-05-09T07:54:21.232Z,36.91
2019-05-09T07:56:39.775Z,36.83
2019-05-09T07:59:10.452Z,37.03
2019-05-09T08:01:42.423Z,36.97
2019-05-09T08:04:14.026Z,36.82
2019-05-09T08:06:48.430Z,36.77
2019-05-09T08:09:19.331Z,36.58
2019-05-09T08:11:51.029Z,36.58
2019-05-09T08:14:22.786Z,36.49
2019-05-09T08:19:38.992Z,36.38
2019-05-09T08:22:10.798Z,36.45
2019-05-09T08:24:42.409Z,36.48
2019-05-09T08:27:14.058Z,36.50
2019-05-09T08:29:47.875Z,36.37
2019-05-09T08:32:19.263Z,36.45
2019-05-09T08:34:50.862Z,36.45
2019-05-09T08:37:22.426Z,36.43
2019-05-09T08:39:54.066Z,36.40
2019-05-09T08:42:25.846Z,36.25
2019-05-09T08:44:57.896Z,36.27
2019-05-09T08:47:29.772Z,36.31
2019-05-09T08:50:13.073Z,36.26
2019-05-09T08:52:45.002Z,36.27
2019-05-09T08:55:17.470Z,36.37
2019-05-09T08:57:49.378Z,36.10
2019-05-09T09:00:21.019Z,36.10
2019-05-09T09:02:52.791Z,36.29
2019-05-09T09:05:24.416Z,36.28
2019-05-09T09:07:57.802Z,36.29
2019-05-09T09:10:29.552Z,36.32
2019-05-09T09:13:01.306Z,36.40
2019-05-09T09:15:55.818Z,36.42
2019-05-09T09:18:05.494Z,36.51
2019-05-09T09:20:37.942Z,36.50
2019-05-09T09:23:09.848Z,36.43
2019-05-09T09:25:44.745Z,36.48
2019-05-09T09:28:15.451Z,36.46
2019-05-09T09:30:48.501Z,36.45
2019-05-09T09:33:19.479Z,36.41
2019-05-09T09:35:51.641Z,36.46
2019-05-09T09:38:23.395Z,36.43
2019-05-09T09:43:39.283Z,36.33
2019-05-09T09:46:14.667Z,36.33
2019-05-09T09:48:44.399Z,36.46
2019-05-09T09:51:18.331Z,36.46
2019-05-09T09:53:49.494Z,36.57
2019-05-09T09:56:22.605Z,36.69
2019-05-09T09:59:08.365Z,36.64
2019-05-09T10:01:42.318Z,36.44
2019-05-09T10:04:23.743Z,36.31
2019-05-09T10:06:53.147Z,36.25
2019-05-09T10:09:24.775Z,36.34
2019-05-09T10:12:00.039Z,36.39
2019-05-09T10:14:33.390Z,36.32
2019-05-09T10:17:33.312Z,36.10
2019-05-09T10:20:22.271Z,36.02
2019-05-09T10:23:00.272Z,36.18
2019-05-09T10:25:27.670Z,36.64
2019-05-09T10:27:59.373Z,36.64
2019-05-09T10:30:38.167Z,36.66
2019-05-09T10:33:09.429Z,36.54
2019-05-09T10:35:41.315Z,36.54
2019-05-09T10:38:13.321Z,36.52
2019-05-09T10:40:48.268Z,36.62
2019-05-09T10:43:39.015Z,36.75
2019-05-09T10:46:46.274Z,36.91
2019-05-09T10:49:03.634Z,36.92
2019-05-09T10:51:34.531Z,36.99
2019-05-09T10:54:08.113Z,37.01
2019-05-09T10:56:39.800Z,37.01
2019-05-09T10:59:10.487Z,36.96
2019-05-09T11:01:42.305Z,36.92
2019-05-09T11:04:14.580Z,36.94
2019-05-09T11:11:49.292Z,36.99
2019-05-09T11:14:32.101Z,36.99
2019-05-09T11:17:07.714Z,36.95
2019-05-09T11:19:28.868Z,36.83
2019-05-09T11:22:00.781Z,36.73
2019-05-09T11:24:42.914Z,36.63
2019-05-09T11:27:08.283Z,36.64
2019-05-09T11:29:39.303Z,36.59
2019-05-09T11:32:10.875Z,36.67
2019-05-09T11:34:42.421Z,36.69
2019-05-09T11:37:14.032Z,36.71
2019-05-09T11:39:48.198Z,36.62
2019-05-09T11:42:19.751Z,36.58
2019-05-09T11:44:50.534Z,36.49
2019-05-09T11:47:32.382Z,36.54
2019-05-09T11:49:57.811Z,36.54
2019-05-09T11:52:29.329Z,36.45
2019-05-09T11:55:01.301Z,36.45
2019-05-09T11:57:32.858Z,36.41
2019-05-09T12:00:05.046Z,36.59
2019-05-09T12:02:38.585Z,36.65
2019-05-09T12:05:09.456Z,36.65
2019-05-09T12:07:41.378Z,36.64
2019-05-09T12:10:13.068Z,36.74
2019-05-09T12:12:47.703Z,36.64
2019-05-09T12:15:18.773Z,36.64
2019-05-09T12:17:57.912Z,36.56
2019-05-09T12:20:24.062Z,36.54
2019-05-09T12:22:58.193Z,36.60
2019-05-09T12:25:29.364Z,36.53
2019-05-09T12:28:01.014Z,36.53
2019-05-09T12:30:32.843Z,36.63
2019-05-09T12:33:04.377Z,36.54
2019-05-09T12:35:38.493Z,36.69
2019-05-09T12:38:09.577Z,36.76
2019-05-09T12:40:41.730Z,36.83
2019-05-09T12:43:12.443Z,36.83
2019-05-09T12:45:44.055Z,36.87
2019-05-09T12:48:18.629Z,36.91
2019-05-09T12:50:49.297Z,36.54
2019-05-09T12:53:21.289Z,36.81
2019-05-09T12:56:00.744Z,36.90
2019-05-09T12:58:32.746Z,36.73
2019-05-09T13:01:03.555Z,36.71
2019-05-09T13:03:38.014Z,36.63
2019-05-09T13:06:08.735Z,36.63
2019-05-09T13:08:39.472Z,36.68
2019-05-09T13:11:11.294Z,36.70
2019-05-09T13:13:43.307Z,36.61
2019-05-09T13:16:47.466Z,36.51
2019-05-09T13:19:12.304Z,36.56
2019-05-09T13:21:43.817Z,36.65
2019-05-09T13:24:19.264Z,36.74
2019-05-09T13:26:51.442Z,36.83
2019-05-09T13:29:23.266Z,36.87
2019-05-09T13:31:57.666Z,36.81
2019-05-09T13:34:29.274Z,36.77
2019-05-09T13:37:00.801Z,36.68
2019-05-09T13:39:32.591Z,36.69
2019-05-09T13:42:04.301Z,36.61
2019-05-09T13:44:41.153Z,36.61
2019-05-09T13:47:11.000Z,36.51
2019-05-09T13:49:42.753Z,36.51
2019-05-09T13:52:13.472Z,36.58
2019-05-09T13:54:45.359Z,36.58
2019-05-09T13:57:18.799Z,36.45
2019-05-09T13:59:50.794Z,36.67
2019-05-09T14:02:22.615Z,36.65
2019-05-09T14:04:54.390Z,36.42
2019-05-09T14:07:27.933Z,36.42
2019-05-09T14:09:59.731Z,36.43
2019-05-09T14:12:30.521Z,36.65
2019-05-09T14:15:02.298Z,36.66
2019-05-09T14:17:46.032Z,36.42
2019-05-09T14:20:08.897Z,36.45
2019-05-09T14:22:40.977Z,36.60
2019-05-09T14:25:12.759Z,36.51
2019-05-09T14:27:48.740Z,36.60
2019-05-09T14:30:19.597Z,36.59
2019-05-09T14:32:50.729Z,36.40
2019-05-09T14:35:21.507Z,35.85
2019-05-09T14:37:53.754Z,35.29
2019-05-09T14:40:25.451Z,35.29
2019-05-09T14:42:57.863Z,34.83
2019-05-09T14:45:29.798Z,34.73
2019-05-09T14:48:01.346Z,34.77
2019-05-09T14:50:33.298Z,34.77
2019-05-09T14:53:04.804Z,34.76
2019-05-09T14:55:39.165Z,34.82
2019-05-09T14:58:10.299Z,34.67
2019-05-09T15:00:41.852Z,34.79
2019-05-09T15:03:13.755Z,34.64
2019-05-09T15:05:45.399Z,34.74
2019-05-09T15:08:18.088Z,34.67
2019-05-09T15:10:49.829Z,35.25
2019-05-09T15:13:21.737Z,35.19
2019-05-09T15:15:52.764Z,35.21
2019-05-09T15:18:24.738Z,35.18
2019-05-09T15:20:57.999Z,35.37
2019-05-09T15:23:29.389Z,35.42
2019-05-09T15:26:01.062Z,35.41
2019-05-09T15:28:32.780Z,35.36
2019-05-09T15:31:04.473Z,35.42
2019-05-09T15:33:37.504Z,35.43
2019-05-09T15:36:09.122Z,35.46
2019-05-09T15:38:40.841Z,35.46
2019-05-09T15:41:12.573Z,35.48
2019-05-09T15:43:44.381Z,35.60
2019-05-09T15:46:24.746Z,35.60
2019-05-09T15:48:55.489Z,35.58
2019-05-09T15:51:27.930Z,35.61
2019-05-09T15:54:00.049Z,35.65
2019-05-09T15:56:31.770Z,35.71
2019-05-09T15:59:03.375Z,35.74
2019-05-09T16:01:35.059Z,35.88
2019-05-09T16:04:08.610Z,35.85
2019-05-09T16:06:40.438Z,36.06
2019-05-09T16:09:12.247Z,36.11
2019-05-09T16:11:44.365Z,36.08
2019-05-09T16:14:18.447Z,36.04
2019-05-09T16:16:49.875Z,36.08
2019-05-09T16:19:21.733Z,36.09
2019-05-09T16:21:52.480Z,35.58
2019-05-09T16:24:24.447Z,35.33
2019-05-09T16:26:57.839Z,35.30
2019-05-09T16:29:32.330Z,35.31
2019-05-09T16:32:03.301Z,35.13
2019-05-09T16:34:35.050Z,35.01
2019-05-09T16:37:07.626Z,35.07
2019-05-09T16:39:39.745Z,35.14
2019-05-09T16:42:10.435Z,35.11
2019-05-09T16:44:42.320Z,35.18
2019-05-09T16:47:14.306Z,35.26
2019-05-09T16:49:47.751Z,35.25
2019-05-09T16:52:19.474Z,35.48
2019-05-09T16:54:53.428Z,35.48
2019-05-09T16:57:27.489Z,35.52
2019-05-09T16:59:58.743Z,35.57
2019-05-09T17:02:29.398Z,35.64
2019-05-09T17:05:01.747Z,35.67
2019-05-09T17:07:32.467Z,35.73
2019-05-09T17:10:04.162Z,35.73
2019-05-09T17:12:37.316Z,35.81
2019-05-09T17:15:09.391Z,35.79
2019-05-09T17:17:41.326Z,35.87
2019-05-09T17:20:14.959Z,35.93
2019-05-09T17:23:11.696Z,35.92
2019-05-09T17:25:39.373Z,36.18
2019-05-09T17:28:11.305Z,36.18
2019-05-09T17:30:42.815Z,36.31
2019-05-09T17:33:14.690Z,36.39
2019-05-09T17:35:45.467Z,36.48
2019-05-09T17:38:18.048Z,36.48
2019-05-09T17:40:50.290Z,36.63
2019-05-09T17:43:22.073Z,36.61
2019-05-09T17:45:53.784Z,36.59
2019-05-09T17:48:24.678Z,36.62
2019-05-09T17:50:57.874Z,36.43
2019-05-09T17:55:18.178Z,36.29
2019-05-09T17:57:50.368Z,36.29
2019-05-09T18:00:23.747Z,36.20
2019-05-09T18:02:54.644Z,36.16
2019-05-09T18:05:26.393Z,36.13
2019-05-09T18:07:58.070Z,36.20
2019-05-09T18:10:29.839Z,36.34
2019-05-09T18:13:01.412Z,36.56
2019-05-09T18:15:33.313Z,36.26
2019-05-09T18:18:04.870Z,35.93
2019-05-09T18:20:37.978Z,35.63
2019-05-09T18:23:09.734Z,35.47
2019-05-09T18:25:40.922Z,35.18
2019-05-09T18:28:12.786Z,35.05
2019-05-09T18:30:43.462Z,35.12
2019-05-09T18:33:21.445Z,35.15
2019-05-09T18:35:53.303Z,35.27
2019-05-09T18:38:34.283Z,35.35
2019-05-09T18:41:09.535Z,35.34
2019-05-09T18:43:39.729Z,35.48
2019-05-09T18:46:10.482Z,35.46
2019-05-09T18:48:42.305Z,35.41
2019-05-09T18:51:13.898Z,35.46
2019-05-09T18:53:45.748Z,35.48
2019-05-09T18:56:16.440Z,35.57
2019-05-09T18:58:48.311Z,35.71
2019-05-09T19:01:20.375Z,35.79
2019-05-09T19:06:33.870Z,35.71
2019-05-09T19:09:06.328Z,35.78
2019-05-09T19:11:38.704Z,35.88
2019-05-09T19:14:12.431Z,35.91
2019-05-09T19:16:53.819Z,35.95
2019-05-09T19:19:32.627Z,36.17
2019-05-09T19:22:21.055Z,36.36
2019-05-09T19:24:38.748Z,36.36
2019-05-09T19:27:09.489Z,36.63
2019-05-09T19:29:41.311Z,36.92
2019-05-09T19:32:12.785Z,37.08
2019-05-09T19:34:44.515Z,37.17
2019-05-09T19:37:16.306Z,37.30
2019-05-09T19:39:47.860Z,37.51
2019-05-09T19:42:19.690Z,37.42
2019-05-09T19:44:51.417Z,37.04
2019-05-09T19:47:23.303Z,37.04
2019-05-09T19:49:55.059Z,36.84
2019-05-09T19:52:37.880Z,36.93
2019-05-09T19:55:00.632Z,36.98
2019-05-09T19:57:32.612Z,37.00
2019-05-09T20:00:04.077Z,37.00
2019-05-09T20:03:19.613Z,36.90
2019-05-09T20:05:51.252Z,36.86
2019-05-09T20:08:23.162Z,36.92
2019-05-09T20:11:21.066Z,37.00
2019-05-09T20:14:11.435Z,36.92
2019-05-09T20:16:46.688Z,36.96
2019-05-09T20:19:18.361Z,37.27
2019-05-09T20:21:50.066Z,37.27
2019-05-09T20:24:22.314Z,37.38
2019-05-09T20:26:53.824Z,37.33
2019-05-09T20:29:25.783Z,37.49
2019-05-09T20:31:56.455Z,37.53
2019-05-09T20:34:28.310Z,37.57
2019-05-09T20:36:59.856Z,37.43
2019-05-09T20:41:27.048Z,37.58
2019-05-09T20:43:59.055Z,37.63
2019-05-09T20:46:31.274Z,37.55
2019-05-09T20:49:03.748Z,37.54
2019-05-09T20:51:34.884Z,37.55
2019-05-09T20:54:20.009Z,37.65
2019-05-09T20:56:40.534Z,37.62
2019-05-09T20:59:12.377Z,37.60
2019-05-09T21:01:44.316Z,37.69
2019-05-09T21:04:16.310Z,37.58
2019-05-09T21:06:48.410Z,37.54
2019-05-09T21:09:20.349Z,37.60
2019-05-09T21:11:52.309Z,37.63
2019-05-09T21:14:24.301Z,37.64
2019-05-09T21:16:56.339Z,37.68
2019-05-09T21:19:28.310Z,37.77
2019-05-09T21:22:00.361Z,37.72
2019-05-09T21:24:32.326Z,37.72
2019-05-09T21:27:04.316Z,37.66
2019-05-09T21:29:36.332Z,37.82
2019-05-09T21:32:08.307Z,37.72
2019-05-09T21:34:39.842Z,37.83
2019-05-09T21:37:13.902Z,38.09
2019-05-09T21:39:45.350Z,38.17
2019-05-09T21:42:16.836Z,37.96
2019-05-09T21:44:48.615Z,38.19
2019-05-09T21:47:20.461Z,38.48
2019-05-09T21:49:52.274Z,38.48
2019-05-09T21:52:23.838Z,38.34
2019-05-09T21:54:55.605Z,38.33
2019-05-09T21:57:28.320Z,38.36
2019-05-09T22:01:01.334Z,38.64
2019-05-09T22:03:32.955Z,38.64
2019-05-09T22:06:04.774Z,38.50
2019-05-09T22:08:36.437Z,38.40
2019-05-09T22:11:08.329Z,38.33
2019-05-09T22:13:40.007Z,38.40
2019-05-09T22:16:11.770Z,38.35
2019-05-09T22:18:42.460Z,38.80
2019-05-09T22:21:23.329Z,38.81
2019-05-09T22:23:56.721Z,38.33
2019-05-09T22:26:28.370Z,38.53
2019-05-09T22:29:00.047Z,38.53
2019-05-09T22:31:31.794Z,38.49
2019-05-09T22:34:03.362Z,38.62
2019-05-09T22:36:35.075Z,38.46
2019-05-09T22:39:08.318Z,38.61
2019-05-09T22:41:39.898Z,38.69
2019-05-09T22:44:11.654Z,38.82
2019-05-09T22:46:43.755Z,38.99
2019-05-09T22:49:14.481Z,38.99
2019-05-09T22:51:46.280Z,38.79
2019-05-09T22:54:17.854Z,38.79
2019-05-09T22:56:49.805Z,38.75
2019-05-09T22:59:21.389Z,38.75
2019-05-09T23:01:53.019Z,39.00
2019-05-09T23:04:24.784Z,38.86
2019-05-09T23:06:56.655Z,38.78
2019-05-09T23:09:28.349Z,38.80
2019-05-09T23:12:07.529Z,38.80
2019-05-09T23:14:38.871Z,38.88
2019-05-09T23:17:11.498Z,38.91
2019-05-09T23:19:43.325Z,38.92
2019-05-09T23:22:15.073Z,39.16
2019-05-09T23:24:46.737Z,39.10
2019-05-09T23:27:19.978Z,39.07
2019-05-09T23:29:51.393Z,39.03
2019-05-09T23:32:36.309Z,39.13
2019-05-09T23:35:07.861Z,39.08
2019-05-09T23:37:39.390Z,39.01
2019-05-09T23:40:11.306Z,39.30
2019-05-09T23:42:43.622Z,39.37
2019-05-09T23:45:15.346Z,38.99
2019-05-09T23:47:46.937Z,38.99
2019-05-09T23:50:18.739Z,39.08
2019-05-09T23:52:49.495Z,38.99
2019-05-09T23:55:39.010Z,39.85
2019-05-09T23:58:28.352Z,39.42
